Time;durP1;ratioP1;P1;durP2;ratioP2;P2;SDS_P1;SDS_P2;PMS_P1;PMS_P2;Temp;Humidity;BMP_temperature;BMP_pressure;BME280_temperature;BME280_humidity;BME280_pressure;Samples;Min_cycle;Max_cycle;Signal;HPM_P1;HPM_P2
2022/01/09 00:00:46;;;;;;;9.93;3.15;;;;;;;-141.50;100.00;63355.56;5073830;28;20040;-80
2022/01/09 00:03:13;;;;;;;5.60;2.60;;;;;;;-141.50;100.00;63355.56;5077578;28;20033;-80
2022/01/09 00:05:39;;;;;;;7.05;2.83;;;;;;;-141.50;100.00;63355.56;5076392;28;20033;-80
2022/01/09 00:08:06;;;;;;;7.78;2.85;;;;;;;-141.50;100.00;63355.56;5077413;28;20041;-80
2022/01/09 00:10:34;;;;;;;6.22;2.72;;;;;;;-141.50;100.00;63355.56;5075869;28;20024;-80
2022/01/09 00:13:01;;;;;;;7.55;2.70;;;;;;;-141.50;100.00;63355.56;5075683;28;20075;-80
2022/01/09 00:15:28;;;;;;;5.55;2.40;;;;;;;-141.50;100.00;63355.56;5075994;28;20079;-80
2022/01/09 00:17:54;;;;;;;7.47;2.75;;;;;;;-141.50;100.00;63355.56;5075108;28;20075;-80
2022/01/09 00:20:21;;;;;;;7.60;2.70;;;;;;;-141.50;100.00;63355.56;5058177;28;20067;-80
2022/01/09 00:22:50;;;;;;;7.70;2.88;;;;;;;-141.50;100.00;63355.56;5075423;28;20025;-80
2022/01/09 00:25:20;;;;;;;6.32;3.15;;;;;;;-141.50;100.00;63355.56;5075662;28;20092;-80
2022/01/09 00:27:47;;;;;;;10.85;3.03;;;;;;;-141.50;100.00;63355.56;5058530;28;20079;-80
2022/01/09 00:30:16;;;;;;;7.15;2.72;;;;;;;-141.50;100.00;63355.56;5072327;28;20071;-80
2022/01/09 00:32:43;;;;;;;8.27;3.20;;;;;;;-141.50;100.00;63355.56;5072985;28;20071;-81
2022/01/09 00:35:10;;;;;;;6.32;3.05;;;;;;;-141.50;100.00;63355.56;5069574;28;20113;-80
2022/01/09 00:37:37;;;;;;;7.57;2.13;;;;;;;-141.50;100.00;63355.56;5071310;28;20049;-80
2022/01/09 00:40:06;;;;;;;5.40;1.52;;;;;;;-141.50;100.00;63355.56;5072517;28;20076;-80
2022/01/09 00:42:33;;;;;;;4.38;1.30;;;;;;;-141.50;100.00;63355.56;5073309;28;20079;-80
2022/01/09 00:45:00;;;;;;;4.10;1.40;;;;;;;-141.50;100.00;63355.56;5060613;28;20048;-80
2022/01/09 00:47:27;;;;;;;4.28;1.40;;;;;;;-141.50;100.00;63355.56;5062273;28;20056;-80
2022/01/09 00:49:54;;;;;;;5.57;1.50;;;;;;;-141.50;100.00;63355.56;5066158;28;20057;-81
2022/01/09 00:52:20;;;;;;;3.85;1.40;;;;;;;-141.50;100.00;63355.56;5069323;28;20033;-81
2022/01/09 00:54:47;;;;;;;2.40;1.10;;;;;;;-141.50;100.00;63355.56;5055029;28;20037;-81
2022/01/09 00:57:13;;;;;;;3.28;1.35;;;;;;;-141.50;100.00;63355.56;5072424;28;20029;-80
2022/01/09 00:59:40;;;;;;;3.63;1.30;;;;;;;-141.50;100.00;63355.56;5073568;28;20052;-81
2022/01/09 01:02:07;;;;;;;5.68;1.60;;;;;;;-141.50;100.00;63355.56;5056641;28;20049;-81
2022/01/09 01:04:33;;;;;;;2.33;1.25;;;;;;;-141.50;100.00;63355.56;5072397;28;20029;-80
2022/01/09 01:07:00;;;;;;;4.00;1.25;;;;;;;-141.50;100.00;63355.56;5073480;28;20041;-82
2022/01/09 01:09:30;;;;;;;4.50;1.60;;;;;;;-141.50;100.00;63355.56;5072263;28;20079;-80
2022/01/09 01:11:58;;;;;;;4.70;1.50;;;;;;;-141.50;100.00;63355.56;5069810;28;20033;-81
2022/01/09 01:14:27;;;;;;;3.83;1.40;;;;;;;-141.50;100.00;63355.56;5070984;28;20044;-81
2022/01/09 01:16:54;;;;;;;4.10;1.35;;;;;;;-141.50;100.00;63355.56;5064711;28;20049;-80
2022/01/09 01:19:22;;;;;;;3.55;1.50;;;;;;;-141.50;100.00;63355.56;5056355;28;20061;-80
2022/01/09 01:21:48;;;;;;;2.88;1.48;;;;;;;-141.50;100.00;63355.56;5058954;28;20045;-80
2022/01/09 01:24:17;;;;;;;4.47;1.30;;;;;;;-141.50;100.00;63355.56;5059414;28;20122;-80
2022/01/09 01:26:44;;;;;;;4.85;1.20;;;;;;;-141.50;100.00;63355.56;5040589;28;20114;-79
2022/01/09 01:29:11;;;;;;;4.45;1.42;;;;;;;-141.50;100.00;63355.56;5057874;28;20444;-80
2022/01/09 01:31:39;;;;;;;3.05;1.27;;;;;;;-141.50;100.00;63355.56;5056542;28;20505;-80
2022/01/09 01:34:05;;;;;;;2.72;1.30;;;;;;;-141.50;100.00;63355.56;5046085;28;20037;-80
2022/01/09 01:36:32;;;;;;;3.13;1.40;;;;;;;-141.50;100.00;63355.56;5086047;28;20029;-79
2022/01/09 01:38:58;;;;;;;3.28;1.50;;;;;;;-141.50;100.00;63355.56;5092170;28;20063;-80
2022/01/09 01:41:25;;;;;;;3.90;1.67;;;;;;;-141.50;100.00;63355.56;5093296;28;20052;-81
2022/01/09 01:43:51;;;;;;;3.30;1.25;;;;;;;-141.50;100.00;63355.56;5092994;28;20037;-81
2022/01/09 01:46:18;;;;;;;4.45;1.50;;;;;;;-141.50;100.00;63355.56;5082259;28;20052;-80
2022/01/09 01:48:45;;;;;;;4.45;1.50;;;;;;;-141.50;100.00;63355.56;5077825;28;20045;-80
2022/01/09 01:51:11;;;;;;;6.90;1.45;;;;;;;-141.50;100.00;63355.56;5061770;28;20048;-79
2022/01/09 01:53:39;;;;;;;4.65;1.52;;;;;;;-141.50;100.00;63355.56;5060796;28;20037;-80
2022/01/09 01:56:06;;;;;;;2.60;1.20;;;;;;;-141.50;100.00;63355.56;5079100;28;20045;-80
2022/01/09 01:58:34;;;;;;;5.28;1.40;;;;;;;-141.50;100.00;63355.56;5078092;28;20511;-80
2022/01/09 02:01:02;;;;;;;7.55;1.85;;;;;;;-141.50;100.00;63355.56;5079155;28;20059;-80
2022/01/09 02:03:29;;;;;;;3.38;1.42;;;;;;;-141.50;100.00;63355.56;5076758;28;20112;-80
2022/01/09 02:05:57;;;;;;;5.47;1.80;;;;;;;-141.50;100.00;63355.56;5078709;28;20090;-80
2022/01/09 02:08:24;;;;;;;4.97;1.83;;;;;;;-141.50;100.00;63355.56;5078735;28;20485;-81
2022/01/09 02:10:50;;;;;;;2.65;1.45;;;;;;;-141.50;100.00;63355.56;5077589;28;20052;-80
2022/01/09 02:13:19;;;;;;;3.63;1.70;;;;;;;-141.50;100.00;63355.56;5076660;28;20048;-80
2022/01/09 02:15:46;;;;;;;3.60;1.60;;;;;;;-141.50;100.00;63355.56;5078274;28;20676;-81
2022/01/09 02:18:17;;;;;;;5.05;1.90;;;;;;;-141.50;100.00;63355.56;5077982;28;20181;-80
2022/01/09 02:20:44;;;;;;;5.30;2.30;;;;;;;-141.50;100.00;63355.56;5065929;28;20044;-81
2022/01/09 02:23:13;;;;;;;5.05;2.00;;;;;;;-141.50;100.00;63355.56;5086735;28;20108;-81
2022/01/09 02:25:40;;;;;;;6.07;2.25;;;;;;;-141.50;100.00;63355.56;5071321;28;20048;-80
2022/01/09 02:28:08;;;;;;;4.50;1.75;;;;;;;-141.50;100.00;63355.56;5092710;28;20062;-80
2022/01/09 02:30:35;;;;;;;3.88;1.92;;;;;;;-141.50;100.00;63355.56;5092536;28;20040;-81
2022/01/09 02:33:05;;;;;;;2.60;1.80;;;;;;;-141.50;100.00;63355.56;5094366;28;20079;-80
2022/01/09 02:35:32;;;;;;;4.75;2.08;;;;;;;-141.50;100.00;63355.56;5084328;28;20049;-81
2022/01/09 02:38:00;;;;;;;4.70;1.92;;;;;;;-141.50;100.00;63355.56;5079048;28;20044;-81
2022/01/09 02:40:26;;;;;;;4.97;2.28;;;;;;;-141.50;100.00;63355.56;5077452;28;20048;-81
2022/01/09 02:42:53;;;;;;;3.75;2.13;;;;;;;-141.50;100.00;63355.56;5079104;28;20436;-80
2022/01/09 02:45:23;;;;;;;5.32;2.20;;;;;;;-141.50;100.00;63355.56;5078987;28;20064;-81
2022/01/09 02:47:51;;;;;;;4.72;2.50;;;;;;;-141.50;100.00;63355.56;5079392;28;20087;-80
2022/01/09 02:52:54;;;;;;;5.50;2.70;;;;;;;-141.50;100.00;63355.56;5085813;28;20056;-80
2022/01/09 02:55:22;;;;;;;6.10;2.50;;;;;;;-141.50;100.00;63355.56;5085371;28;20116;-79
2022/01/09 02:57:55;;;;;;;7.03;2.72;;;;;;;-141.50;100.00;63355.56;5076485;28;20338;-80
2022/01/09 03:00:29;;;;;;;7.22;2.47;;;;;;;-141.50;100.00;63355.56;5075994;28;20049;-79
2022/01/09 03:02:56;;;;;;;4.77;2.70;;;;;;;-141.50;100.00;63355.56;5059065;28;20072;-80
2022/01/09 03:05:24;;;;;;;6.57;2.67;;;;;;;-141.50;100.00;63355.56;5075919;28;20056;-81
2022/01/09 03:07:52;;;;;;;3.55;2.30;;;;;;;-141.50;100.00;63355.56;5079142;28;20048;-80
2022/01/09 03:10:20;;;;;;;6.03;2.85;;;;;;;-141.50;100.00;63355.56;5078282;28;20064;-78
2022/01/09 03:12:48;;;;;;;5.25;2.63;;;;;;;-141.50;100.00;63355.56;5079023;28;20355;-80
2022/01/09 03:15:16;;;;;;;6.68;2.70;;;;;;;-141.50;100.00;63355.56;5077673;28;20045;-80
2022/01/09 03:17:43;;;;;;;5.07;2.50;;;;;;;-141.50;100.00;63355.56;5079251;28;20045;-80
2022/01/09 03:20:16;;;;;;;6.43;2.70;;;;;;;-141.50;100.00;63355.56;5083633;28;20473;-80
2022/01/09 03:22:44;;;;;;;7.40;2.85;;;;;;;-141.50;100.00;63355.56;5083194;28;20041;-81
2022/01/09 03:25:12;;;;;;;5.38;2.70;;;;;;;-141.50;100.00;63355.56;5082538;28;20115;-81
2022/01/09 03:27:40;;;;;;;7.07;3.08;;;;;;;-141.50;100.00;63355.56;5083947;28;20044;-80
2022/01/09 03:30:09;;;;;;;5.93;2.80;;;;;;;-141.50;100.00;63355.56;5083217;28;20059;-81
2022/01/09 03:32:37;;;;;;;4.82;2.72;;;;;;;-141.50;100.00;63355.56;5083662;28;20040;-82
2022/01/09 03:35:10;;;;;;;5.50;2.83;;;;;;;-141.50;100.00;63355.56;5081997;28;20041;-80
2022/01/09 03:37:38;;;;;;;4.53;2.65;;;;;;;-141.50;100.00;63355.56;5081169;28;20048;-78
2022/01/09 03:40:06;;;;;;;5.63;2.58;;;;;;;-141.50;100.00;63355.56;5083535;28;20044;-78
2022/01/09 03:42:32;;;;;;;4.35;2.47;;;;;;;-141.50;100.00;63355.56;5084518;28;20041;-79
2022/01/09 03:44:59;;;;;;;6.30;2.42;;;;;;;-141.50;100.00;63355.56;5066509;28;20079;-79
2022/01/09 03:47:26;;;;;;;6.40;2.78;;;;;;;-141.50;100.00;63355.56;5084522;28;20071;-80
2022/01/09 03:49:52;;;;;;;4.85;2.65;;;;;;;-141.50;100.00;63355.56;5080843;28;20446;-81
2022/01/09 03:52:19;;;;;;;5.75;2.90;;;;;;;-141.50;100.00;63355.56;5082368;28;20072;-80
2022/01/09 03:54:45;;;;;;;7.88;2.75;;;;;;;-141.50;100.00;63355.56;5065292;28;20045;-80
2022/01/09 03:57:12;;;;;;;4.78;2.55;;;;;;;-141.50;100.00;63355.56;5062409;28;20490;-81
2022/01/09 03:59:38;;;;;;;5.35;2.70;;;;;;;-141.50;100.00;63355.56;5081572;28;20052;-80
2022/01/09 04:02:08;;;;;;;6.53;2.92;;;;;;;-141.50;100.00;63355.56;5081209;28;20048;-80
2022/01/09 04:04:34;;;;;;;6.05;3.17;;;;;;;-141.50;100.00;63355.56;5080724;28;20128;-80
2022/01/09 04:07:01;;;;;;;7.65;3.45;;;;;;;-141.50;100.00;63355.56;5083655;28;20067;-81
2022/01/09 04:09:37;;;;;;;7.93;3.78;;;;;;;-141.50;100.00;63355.56;5083389;28;20056;-80
2022/01/09 04:12:18;;;;;;;10.02;3.60;;;;;;;-141.50;100.00;63355.56;5062309;28;20049;-82
2022/01/09 04:14:47;;;;;;;9.40;3.45;;;;;;;-141.50;100.00;63355.56;5080531;28;20245;-80
2022/01/09 04:17:31;;;;;;;7.50;3.78;;;;;;;-141.50;100.00;63355.56;5079558;28;20070;-80
2022/01/09 04:19:58;;;;;;;7.15;3.70;;;;;;;-141.50;100.00;63355.56;5082160;28;20052;-80
2022/01/09 04:22:25;;;;;;;9.77;4.32;;;;;;;-141.50;100.00;63355.56;5082798;28;20304;-78
2022/01/09 04:24:51;;;;;;;7.25;3.90;;;;;;;-141.50;100.00;63355.56;5082816;28;20450;-81
2022/01/09 04:27:18;;;;;;;9.45;4.32;;;;;;;-141.50;100.00;63355.56;5081601;28;20477;-80
2022/01/09 04:29:44;;;;;;;11.32;4.93;;;;;;;-141.50;100.00;63355.56;5081308;28;20056;-80
2022/01/09 04:32:11;;;;;;;10.00;4.20;;;;;;;-141.50;100.00;63355.56;5081783;28;20068;-80
2022/01/09 04:34:37;;;;;;;10.02;4.50;;;;;;;-141.50;100.00;63355.56;5079191;28;20574;-80
2022/01/09 04:37:05;;;;;;;9.80;4.30;;;;;;;-141.50;100.00;63355.56;5079886;28;20286;-80
2022/01/09 04:39:32;;;;;;;7.85;4.30;;;;;;;-141.50;100.00;63355.56;5080872;28;20090;-79
2022/01/09 04:41:58;;;;;;;8.93;3.90;;;;;;;-141.50;100.00;63355.56;5062658;28;20299;-79
2022/01/09 04:44:25;;;;;;;8.88;4.05;;;;;;;-141.50;100.00;63355.56;5078723;28;20109;-79
2022/01/09 04:46:58;;;;;;;7.18;4.05;;;;;;;-141.50;100.00;63355.56;5080109;28;20049;-80
2022/01/09 04:49:28;;;;;;;9.18;4.00;;;;;;;-141.50;100.00;63355.56;5080045;28;20102;-80
2022/01/09 04:51:56;;;;;;;8.93;4.55;;;;;;;-141.50;100.00;63355.56;5080523;28;20137;-79
2022/01/09 04:54:23;;;;;;;9.63;3.83;;;;;;;-141.50;100.00;63355.56;5062114;28;20105;-80
2022/01/09 04:56:49;;;;;;;9.57;4.05;;;;;;;-141.50;100.00;63355.56;5081950;28;20127;-79
2022/01/09 04:59:16;;;;;;;6.78;3.55;;;;;;;-141.50;100.00;63355.56;5073153;28;20186;-80
2022/01/09 05:01:42;;;;;;;7.22;3.78;;;;;;;-141.50;100.00;63355.56;5071932;28;20052;-80
2022/01/09 05:04:09;;;;;;;7.78;3.50;;;;;;;-141.50;100.00;63355.56;5069418;28;20182;-79
2022/01/09 05:06:37;;;;;;;9.05;3.58;;;;;;;-141.50;100.00;63355.56;5071052;28;20048;-79
2022/01/09 05:09:03;;;;;;;9.40;3.92;;;;;;;-141.50;100.00;63355.56;5070836;28;20381;-79
2022/01/09 05:11:30;;;;;;;8.38;3.40;;;;;;;-141.50;100.00;63355.56;5059563;28;20427;-80
2022/01/09 05:13:56;;;;;;;8.80;3.42;;;;;;;-141.50;100.00;63355.56;5080082;28;20121;-78
2022/01/09 05:16:23;;;;;;;9.32;3.22;;;;;;;-141.50;100.00;63355.56;5074316;28;20044;-80
2022/01/09 05:18:53;;;;;;;6.20;3.15;;;;;;;-141.50;100.00;63355.56;5083340;28;20139;-79
2022/01/09 05:21:20;;;;;;;8.10;3.53;;;;;;;-141.50;100.00;63355.56;5072335;28;20409;-79
2022/01/09 05:23:47;;;;;;;6.07;3.00;;;;;;;-141.50;100.00;63355.56;5072743;28;20048;-80
2022/01/09 05:26:14;;;;;;;6.55;3.13;;;;;;;-141.50;100.00;63355.56;5074327;28;20045;-80
2022/01/09 05:28:40;;;;;;;5.50;2.95;;;;;;;-141.50;100.00;63355.56;5075469;28;20449;-80
2022/01/09 05:31:07;;;;;;;6.70;3.22;;;;;;;-141.50;100.00;63355.56;5058634;28;20044;-80
2022/01/09 05:33:33;;;;;;;5.72;2.88;;;;;;;-141.50;100.00;63355.56;5057704;28;20075;-81
2022/01/09 05:36:00;;;;;;;8.30;2.90;;;;;;;-141.50;100.00;63355.56;5079201;28;20051;-81
2022/01/09 05:38:27;;;;;;;7.18;2.80;;;;;;;-141.50;100.00;63355.56;5079893;28;20056;-80
2022/01/09 05:40:53;;;;;;;5.78;2.70;;;;;;;-141.50;100.00;63355.56;5081728;28;20052;-81
2022/01/09 05:43:21;;;;;;;5.63;2.72;;;;;;;-141.50;100.00;63355.56;5090094;28;20045;-81
2022/01/09 05:45:47;;;;;;;6.10;2.75;;;;;;;-141.50;100.00;63355.56;5093725;28;20049;-80
2022/01/09 05:48:14;;;;;;;4.30;2.35;;;;;;;-141.50;100.00;63355.56;5071707;28;20044;-79
2022/01/09 05:50:40;;;;;;;4.10;2.22;;;;;;;-141.50;100.00;63355.56;5060658;28;20048;-81
2022/01/09 05:53:07;;;;;;;3.80;2.38;;;;;;;-141.50;100.00;63355.56;5059129;28;20094;-75
2022/01/09 05:55:33;;;;;;;5.00;2.30;;;;;;;-141.50;100.00;63355.56;5077072;28;20134;-78
2022/01/09 05:58:00;;;;;;;3.75;2.10;;;;;;;-141.50;100.00;63355.56;5076983;28;20053;-80
2022/01/09 06:00:26;;;;;;;4.95;2.40;;;;;;;-141.50;100.00;63355.56;5058760;28;20048;-79
2022/01/09 06:02:53;;;;;;;4.50;2.40;;;;;;;-141.50;100.00;63355.56;5056211;28;20505;-78
2022/01/09 06:05:20;;;;;;;3.85;2.13;;;;;;;-141.50;100.00;63355.56;5053244;28;20048;-79
2022/01/09 06:07:46;;;;;;;3.65;2.20;;;;;;;-141.50;100.00;63355.56;5075433;28;20098;-80
2022/01/09 06:10:13;;;;;;;5.90;2.53;;;;;;;-141.50;100.00;63355.56;5076602;28;20049;-80
2022/01/09 06:12:40;;;;;;;5.80;2.67;;;;;;;-141.50;100.00;63355.56;5077541;28;20060;-79
2022/01/09 06:15:07;;;;;;;3.22;2.00;;;;;;;-141.50;100.00;63355.56;5076096;28;20055;-79
2022/01/09 06:17:38;;;;;;;6.63;2.00;;;;;;;-141.50;100.00;63355.56;5059612;28;20052;-78
2022/01/09 06:20:07;;;;;;;4.75;1.92;;;;;;;-141.50;100.00;63355.56;5059002;28;20056;-79
2022/01/09 06:22:33;;;;;;;3.28;1.90;;;;;;;-141.50;100.00;63355.56;5077743;28;20048;-80
2022/01/09 06:25:00;;;;;;;4.95;1.80;;;;;;;-141.50;100.00;63355.56;5076248;28;20044;-79
2022/01/09 06:27:27;;;;;;;4.78;1.95;;;;;;;-141.50;100.00;63355.56;5077021;28;20048;-79
2022/01/09 06:29:54;;;;;;;2.72;1.45;;;;;;;-141.50;100.00;63355.56;5078072;28;20101;-79
2022/01/09 06:32:20;;;;;;;2.90;1.00;;;;;;;-141.50;100.00;63355.56;5076332;28;20052;-80
2022/01/09 06:34:47;;;;;;;0.95;0.68;;;;;;;-141.50;100.00;63355.56;5059207;28;20393;-79
2022/01/09 06:37:14;;;;;;;1.13;0.68;;;;;;;-141.50;100.00;63355.56;5078092;28;20538;-79
2022/01/09 06:39:41;;;;;;;1.63;0.52;;;;;;;-141.50;100.00;63355.56;5049128;28;20048;-80
2022/01/09 06:42:08;;;;;;;0.90;0.52;;;;;;;-141.50;100.00;63355.56;5054064;28;20114;-79
2022/01/09 06:44:35;;;;;;;1.35;0.60;;;;;;;-141.50;100.00;63355.56;5051175;28;20070;-79
2022/01/09 06:47:01;;;;;;;0.85;0.50;;;;;;;-141.50;100.00;63355.56;5067049;28;20053;-79
2022/01/09 06:49:28;;;;;;;1.27;0.60;;;;;;;-141.50;100.00;63355.56;5063946;28;20059;-80
2022/01/09 06:51:54;;;;;;;1.17;0.50;;;;;;;-141.50;100.00;63355.56;5073174;28;20076;-80
2022/01/09 06:54:21;;;;;;;0.98;0.45;;;;;;;-141.50;100.00;63355.56;5062455;28;20045;-80
2022/01/09 06:56:48;;;;;;;4.22;0.38;;;;;;;-141.50;100.00;63355.56;5057745;28;20044;-79
2022/01/09 06:59:14;;;;;;;1.85;0.60;;;;;;;-141.50;100.00;63355.56;5070069;28;20056;-79
2022/01/09 07:01:41;;;;;;;1.50;0.50;;;;;;;-141.50;100.00;63355.56;5047389;28;20558;-80
2022/01/09 07:04:07;;;;;;;0.90;0.50;;;;;;;-141.50;100.00;63355.56;5046798;28;20099;-79
2022/01/09 07:06:35;;;;;;;1.50;0.40;;;;;;;-141.50;100.00;63355.56;5048747;28;20053;-81
2022/01/09 07:09:03;;;;;;;1.05;0.50;;;;;;;-141.50;100.00;63355.56;5049778;28;20562;-81
2022/01/09 07:11:30;;;;;;;1.35;0.52;;;;;;;-141.50;100.00;63355.56;5048464;28;20060;-79
2022/01/09 07:13:56;;;;;;;0.70;0.47;;;;;;;-141.50;100.00;63355.56;5036329;28;20098;-81
2022/01/09 07:16:23;;;;;;;1.13;0.50;;;;;;;-141.50;100.00;63355.56;5060771;28;20044;-78
2022/01/09 07:18:50;;;;;;;0.73;0.40;;;;;;;-141.50;100.00;63355.56;5064110;28;20128;-81
2022/01/09 07:21:16;;;;;;;0.70;0.57;;;;;;;-141.50;100.00;63355.56;5071911;28;20052;-79
2022/01/09 07:23:43;;;;;;;0.85;0.60;;;;;;;-141.50;100.00;63355.56;5061448;28;20072;-79
2022/01/09 07:26:09;;;;;;;1.42;0.60;;;;;;;-141.50;100.00;63355.56;5052994;28;20091;-78
2022/01/09 07:28:36;;;;;;;0.80;0.50;;;;;;;-141.50;100.00;63355.56;5034283;28;20125;-80
2022/01/09 07:31:02;;;;;;;3.55;0.70;;;;;;;-141.50;100.00;63355.56;5056745;28;20147;-79
2022/01/09 07:33:32;;;;;;;0.98;0.55;;;;;;;-141.50;100.00;63355.56;5069887;28;20083;-78
2022/01/09 07:35:59;;;;;;;1.48;0.65;;;;;;;-141.50;100.00;63355.56;5081998;28;20052;-79
2022/01/09 07:38:25;;;;;;;1.00;0.50;;;;;;;-141.50;100.00;63355.56;5049083;28;20595;-76
2022/01/09 07:40:52;;;;;;;0.95;0.50;;;;;;;-141.50;100.00;63355.56;5052754;28;20056;-78
2022/01/09 07:43:19;;;;;;;1.15;0.52;;;;;;;-141.50;100.00;63355.56;5040484;28;20467;-77
2022/01/09 07:45:45;;;;;;;0.60;0.40;;;;;;;-141.50;100.00;63355.56;5050435;28;20052;-80
2022/01/09 07:48:12;;;;;;;1.13;0.70;;;;;;;-141.50;100.00;63355.56;5038844;28;20075;-80
2022/01/09 07:50:39;;;;;;;1.23;0.60;;;;;;;-141.50;100.00;63355.56;5033810;28;20052;-79
2022/01/09 07:53:05;;;;;;;1.70;0.90;;;;;;;-141.50;100.00;63355.56;5067126;28;20056;-79
2022/01/09 07:55:32;;;;;;;1.17;0.60;;;;;;;-141.50;100.00;63355.56;5056453;28;20056;-76
2022/01/09 07:57:59;;;;;;;3.75;1.20;;;;;;;-141.50;100.00;63355.56;5052258;28;20601;-79
2022/01/09 08:00:25;;;;;;;2.25;0.95;;;;;;;-141.50;100.00;63355.56;5063758;28;20057;-78
2022/01/09 08:02:52;;;;;;;1.23;0.60;;;;;;;-141.50;100.00;63355.56;5056050;28;20033;-80
2022/01/09 08:05:19;;;;;;;2.05;0.70;;;;;;;-141.50;100.00;63355.56;5082815;28;20052;-80
2022/01/09 08:07:45;;;;;;;1.05;0.55;;;;;;;-141.50;100.00;63355.56;5066801;28;20048;-79
2022/01/09 08:10:12;;;;;;;1.67;0.63;;;;;;;-141.50;100.00;63355.56;5060500;28;20048;-79
2022/01/09 08:12:39;;;;;;;1.25;0.60;;;;;;;-141.50;100.00;63355.56;5051359;28;20414;-77
2022/01/09 08:15:06;;;;;;;2.03;0.80;;;;;;;-141.50;100.00;63355.56;5054241;28;20044;-77
2022/01/09 08:17:33;;;;;;;4.60;0.60;;;;;;;-141.50;100.00;63355.56;5071239;28;20052;-79
2022/01/09 08:20:00;;;;;;;3.33;0.65;;;;;;;-141.50;100.00;63355.56;5073653;28;20096;-78
2022/01/09 08:22:29;;;;;;;1.67;0.60;;;;;;;-141.50;100.00;63355.56;5061738;28;20083;-79
2022/01/09 08:24:58;;;;;;;0.80;0.45;;;;;;;-141.50;100.00;63355.56;5053687;28;20148;-80
2022/01/09 08:27:25;;;;;;;1.50;0.60;;;;;;;-141.50;100.00;63355.56;5052188;28;20095;-79
2022/01/09 08:29:52;;;;;;;1.80;0.60;;;;;;;-141.50;100.00;63355.56;5058897;28;20057;-80
2022/01/09 08:32:18;;;;;;;1.42;0.70;;;;;;;-141.50;100.00;63355.56;5053313;28;20480;-80
2022/01/09 08:34:48;;;;;;;1.33;0.60;;;;;;;-141.50;100.00;63355.56;5053131;28;20048;-79
2022/01/09 08:37:14;;;;;;;0.93;0.60;;;;;;;-141.50;100.00;63355.56;5076354;28;20767;-79
2022/01/09 08:39:42;;;;;;;1.63;0.80;;;;;;;-141.50;100.00;63355.56;5076967;28;20139;-80
2022/01/09 08:42:09;;;;;;;1.83;0.70;;;;;;;-141.50;100.00;63355.56;5077041;28;20048;-78
2022/01/09 08:44:36;;;;;;;2.53;1.38;;;;;;;-141.50;100.00;63355.56;5060506;28;20409;-78
2022/01/09 08:47:05;;;;;;;4.80;1.05;;;;;;;-141.50;100.00;63355.56;5063332;28;20048;-79
2022/01/09 08:49:31;;;;;;;1.23;0.70;;;;;;;-141.50;100.00;63355.56;5077535;28;20056;-79
2022/01/09 08:51:58;;;;;;;1.05;0.60;;;;;;;-141.50;100.00;63355.56;5076432;28;20040;-77
2022/01/09 08:54:24;;;;;;;1.83;0.65;;;;;;;-141.50;100.00;63355.56;5074268;28;20078;-79
2022/01/09 08:56:51;;;;;;;2.28;0.70;;;;;;;-141.50;100.00;63355.56;5060078;28;20087;-77
2022/01/09 08:59:19;;;;;;;3.58;0.88;;;;;;;-141.50;100.00;63355.56;5082422;28;20048;-78
2022/01/09 09:01:47;;;;;;;1.20;0.70;;;;;;;-141.50;100.00;63355.56;5084320;28;20052;-80
2022/01/09 09:04:14;;;;;;;2.63;0.68;;;;;;;-141.50;100.00;63355.56;5055398;28;20064;-80
2022/01/09 09:06:41;;;;;;;1.70;0.80;;;;;;;-141.50;100.00;63355.56;5063865;28;20298;-80
2022/01/09 09:09:09;;;;;;;1.55;0.90;;;;;;;-141.50;100.00;63355.56;5056965;28;20508;-79
2022/01/09 09:11:36;;;;;;;1.23;0.68;;;;;;;-141.50;100.00;63355.56;5060780;28;20045;-77
2022/01/09 09:14:04;;;;;;;1.52;0.80;;;;;;;-141.50;100.00;63355.56;5039130;28;20056;-80
2022/01/09 09:16:32;;;;;;;4.55;1.10;;;;;;;-141.50;100.00;63355.56;5050786;28;20076;-79
2022/01/09 09:18:59;;;;;;;1.13;0.70;;;;;;;-141.50;100.00;63355.56;5059823;28;20459;-78
2022/01/09 09:21:26;;;;;;;2.00;0.60;;;;;;;-141.50;100.00;63355.56;5061168;28;20056;-78
2022/01/09 09:24:01;;;;;;;1.77;1.00;;;;;;;-141.50;100.00;63355.56;5043040;28;20394;-80
2022/01/09 09:26:31;;;;;;;1.98;0.75;;;;;;;-141.50;100.00;63355.56;5056301;28;20041;-78
2022/01/09 09:28:57;;;;;;;2.60;1.00;;;;;;;-141.50;100.00;63355.56;5055753;28;20331;-78
2022/01/09 09:31:30;;;;;;;1.63;0.82;;;;;;;-141.50;100.00;63355.56;5060120;28;20056;-80
2022/01/09 09:34:08;;;;;;;3.67;1.08;;;;;;;-141.50;100.00;63355.56;5062121;28;20060;-79
2022/01/09 09:36:36;;;;;;;1.50;0.80;;;;;;;-141.50;100.00;63355.56;5057812;28;20160;-78
2022/01/09 09:39:05;;;;;;;1.83;0.82;;;;;;;-141.50;100.00;63355.56;5039602;28;20049;-78
2022/01/09 09:41:32;;;;;;;1.40;0.70;;;;;;;-141.50;100.00;63355.56;5056366;28;20057;-80
2022/01/09 09:43:58;;;;;;;1.70;0.88;;;;;;;-141.50;100.00;63355.56;5057093;28;20045;-80
2022/01/09 09:46:26;;;;;;;2.90;0.90;;;;;;;-141.50;100.00;63355.56;5037293;28;20126;-78
2022/01/09 09:48:54;;;;;;;2.35;0.80;;;;;;;-141.50;100.00;63355.56;5055527;28;20053;-79
2022/01/09 09:51:24;;;;;;;1.70;0.80;;;;;;;-141.50;100.00;63355.56;5065511;28;20076;-79
2022/01/09 09:53:52;;;;;;;1.80;0.90;;;;;;;-141.50;100.00;63355.56;5061295;28;20107;-79
2022/01/09 09:56:21;;;;;;;1.55;0.98;;;;;;;-141.50;100.00;63355.56;5056959;28;20049;-79
2022/01/09 09:58:51;;;;;;;1.50;0.70;;;;;;;-141.50;100.00;63355.56;5056668;28;20538;-78
2022/01/09 10:01:23;;;;;;;2.13;0.80;;;;;;;-141.50;100.00;63355.56;5057962;28;20068;-79
2022/01/09 10:04:09;;;;;;;1.08;0.73;;;;;;;-141.50;100.00;63355.56;5055481;28;20068;-77
2022/01/09 10:06:40;;;;;;;2.00;0.80;;;;;;;-141.50;100.00;63355.56;5056619;28;20152;-79
2022/01/09 10:09:19;;;;;;;1.90;0.90;;;;;;;-141.50;100.00;63355.56;5055232;28;20278;-77
2022/01/09 10:12:04;;;;;;;1.10;0.70;;;;;;;-141.50;100.00;63355.56;5056934;28;20053;-79
2022/01/09 10:14:32;;;;;;;2.03;0.50;;;;;;;-141.50;100.00;63355.56;5055757;28;20056;-79
2022/01/09 10:17:19;;;;;;;1.70;0.60;;;;;;;-141.50;100.00;63355.56;5037204;28;20064;-79
2022/01/09 10:19:47;;;;;;;0.85;0.40;;;;;;;-141.50;100.00;63355.56;5055353;28;20088;-78
2022/01/09 10:22:36;;;;;;;1.63;0.40;;;;;;;-141.50;100.00;63355.56;5058078;28;20049;-79
2022/01/09 10:25:20;;;;;;;0.77;0.40;;;;;;;-141.50;100.00;63355.56;5057297;28;20057;-79
2022/01/09 10:27:49;;;;;;;0.77;0.40;;;;;;;-141.50;100.00;63355.56;5039883;28;20112;-80
2022/01/09 10:30:16;;;;;;;2.30;0.47;;;;;;;-141.50;100.00;63355.56;5058179;28;20102;-77
2022/01/09 10:32:43;;;;;;;2.60;0.50;;;;;;;-141.50;100.00;63355.56;5058298;28;20110;-80
2022/01/09 10:35:18;;;;;;;0.50;0.40;;;;;;;-141.50;100.00;63355.56;5040313;28;20048;-79
2022/01/09 10:37:47;;;;;;;0.60;0.40;;;;;;;-141.50;100.00;63355.56;5058015;28;20075;-80
2022/01/09 10:40:22;;;;;;;1.00;0.32;;;;;;;-141.50;100.00;63355.56;5058144;28;20053;-78
2022/01/09 10:43:16;;;;;;;2.47;0.55;;;;;;;-141.50;100.00;63355.56;5040301;28;20057;-79
2022/01/09 10:45:58;;;;;;;0.93;0.50;;;;;;;-141.50;100.00;63355.56;5058903;28;20623;-80
2022/01/09 10:48:38;;;;;;;0.77;0.40;;;;;;;-141.50;100.00;63355.56;5056323;28;20488;-79
2022/01/09 10:51:07;;;;;;;0.75;0.40;;;;;;;-141.50;100.00;63355.56;5052137;28;20166;-78
2022/01/09 10:53:39;;;;;;;1.52;0.80;;;;;;;-141.50;100.00;63355.56;5054285;28;20048;-78
2022/01/09 10:56:20;;;;;;;1.15;0.38;;;;;;;-141.50;100.00;63355.56;5052276;28;20106;-79
2022/01/09 10:58:49;;;;;;;0.95;0.60;;;;;;;-141.50;100.00;63355.56;5050423;28;20485;-78
2022/01/09 11:01:18;;;;;;;2.40;0.60;;;;;;;-141.50;100.00;63355.56;5051127;28;20052;-79
2022/01/09 11:03:50;;;;;;;0.98;0.50;;;;;;;-141.50;100.00;63355.56;5049786;28;20067;-78
2022/01/09 11:06:17;;;;;;;2.83;0.55;;;;;;;-141.50;100.00;63355.56;5035074;28;20045;-79
2022/01/09 11:08:45;;;;;;;3.03;1.50;;;;;;;-141.50;100.00;63355.56;5053595;28;20044;-79
2022/01/09 11:11:23;;;;;;;1.20;0.50;;;;;;;-141.50;100.00;63355.56;5055686;28;20521;-79
2022/01/09 11:13:52;;;;;;;1.55;0.60;;;;;;;-141.50;100.00;63355.56;5055324;28;20053;-79
2022/01/09 11:16:42;;;;;;;1.50;0.60;;;;;;;-141.50;100.00;63355.56;5054925;28;20049;-79